• Join FlightAware (Why Join?)
  • Login
  • US Flag 
12:57AM EDT


 

Airport Tracker/Info


-or-


 

Live Flight TrackerFlight Track Log ✈ UAL139 ✈ 15-Aug-2013 ✈ KDEN - RJAA / NRT

Flight Track Log - Related Links

Times and Time Zones

All times are in EDT time to prevent confusion due to time zone crossing. See the UAL139 flight status page for this flight to view local times or setup timezone preferences in your user account.

Time Position Orientation Groundspeed Altitude Reporting Facility
EDT Latitude Longitude Course Direction KTS MPH feet Rate Location/Type
03:02PM 39.8650 -104.6960 North 135 155 5,100  Level FlightAware
03:03PM 39.8760 -104.6960 360° North 184 212 5,100 720 Level FlightAware
03:03PM 39.8950 -104.6960 360° North 211 243 5,500 1,620 Climbing FlightAware
03:04PM 39.9320 -104.7000 355° North 226 260 6,700 1,740 Climbing FlightAware
03:04PM 39.9530 -104.7060 348° North 244 281 7,200 1,800 Climbing FlightAware
03:04PM 39.9710 -104.7110 348° North 252 290 7,800 1,860 Climbing FlightAware
03:05PM 40.0060 -104.7210 348° North 276 318 8,600 1,980 Climbing FlightAware
03:05PM 40.0320 -104.7280 348° North 280 322 9,400 1,800 Climbing FlightAware
03:05PM 40.0510 -104.7340 346° North 276 318 9,700 1,380 Climbing FlightAware
03:06PM 40.0960 -104.7540 341° North 295 339 10,600 1,380 Climbing FlightAware
03:06PM 40.1390 -104.7750 340° North 325 374 11,300 1,800 Climbing FlightAware
03:07PM 40.1920 -104.8000 340° North 336 387 12,700 2,400 Climbing FlightAware
03:08PM 40.2450 -104.8240 341° North 342 394 14,200 2,520 Climbing FlightAware
03:08PM 40.2930 -104.8470 340° North 348 400 15,600 2,520 Climbing FlightAware
03:09PM 40.3480 -104.8730 340° North 353 406 17,100 2,460 Climbing FlightAware
03:09PM 40.4040 -104.8990 341° North 357 411 18,600 2,340 Climbing FlightAware
03:10PM 40.4550 -104.9220 341° North 364 419 19,800 2,040 Climbing FlightAware
03:11PM 40.5190 -104.9520 340° North 373 429 21,100 1,920 Climbing FlightAware
03:11PM 40.5740 -104.9780 340° North 379 436 22,200 1,680 Climbing FlightAware
03:12PM 40.6420 -105.0100 340° North 386 444 23,200 1,740 Climbing FlightAware
03:12PM 40.7050 -105.0400 340° North 389 448 24,500 1,920 Climbing FlightAware
03:13PM 40.7560 -105.0670 338° Northwest 392 451 25,500 1,800 Climbing FlightAware
03:13PM 40.8060 -105.1150 324° Northwest 398 458 26,500 1,620 Climbing FlightAware
03:14PM 40.8630 -105.1790 320° Northwest 408 470 27,500 1,560 Climbing FlightAware
03:15PM 40.9110 -105.2330 320° Northwest 411 473 28,400 1,560 Climbing FlightAware
03:15PM 40.9620 -105.2920 319° Northwest 415 478 29,300 1,380 Climbing FlightAware
03:16PM 41.0180 -105.3540 320° Northwest 419 482 30,100 1,320 Climbing FlightAware
03:16PM 41.0620 -105.4050 319° Northwest 423 487 30,800 1,320 Climbing FlightAware
03:17PM 41.1180 -105.4690 319° Northwest 428 493 31,600 1,080 Climbing FlightAware
03:18PM 41.1720 -105.5310 319° Northwest 434 499 32,200 1,020 Climbing FlightAware
03:18PM 41.2220 -105.5870 320° Northwest 437 503 32,800 1,080 Climbing FlightAware
03:19PM 41.2790 -105.6540 319° Northwest 440 506 33,500 960 Climbing FlightAware
03:19PM 41.3300 -105.7140 319° Northwest 444 511 34,000 720 Climbing FlightAware
03:20PM 41.3810 -105.7880 313° West 449 517 34,400 960 Climbing FlightAware
03:20PM 41.4240 -105.8550 311° West 446 513 35,100 1,260 Climbing FlightAware
03:21PM 41.4740 -105.9340 310° West 444 511 35,900 1,020 Climbing FlightAware
03:22PM 41.5180 -106.0030 310° West 444 511 36,300 780 Climbing FlightAware
03:22PM 41.5650 -106.0770 310° West 444 511 36,800 900 Climbing FlightAware
03:23PM 41.5970 -106.1270 311° West 443 510 37,200 780 Climbing FlightAware
03:23PM 41.6480 -106.2090 310° West 441 507 37,700 660 Climbing FlightAware
03:24PM 41.6850 -106.2680 310° West 440 506 38,000 240 Climbing FlightAware
03:24PM 41.7270 -106.3330 311° West 440 506 38,000  Level FlightAware
03:25PM 41.7940 -106.4400 310° West 438 504 38,000  Level FlightAware
03:26PM 41.8400 -106.5130 310° West 439 505 38,000  Level FlightAware
03:26PM 41.8790 -106.5780 309° West 439 505 38,000  Level FlightAware
03:27PM 41.9180 -106.6430 309° West 439 505 38,000  Level FlightAware
03:28PM 41.9570 -106.7080 309° West 439 505 38,000  Level FlightAware
03:28PM 41.9960 -106.7730 309° West 439 505 38,000  Level FlightAware
03:29PM 42.0370 -106.8400 309° West 439 505 38,000  Level FlightAware
03:29PM 42.0770 -106.9070 309° West 439 505 38,000  Level FlightAware
03:30PM 42.1170 -106.9740 309° West 439 505 38,000  Level FlightAware
03:31PM 42.1560 -107.0390 309° West 439 505 38,000  Level FlightAware
03:31PM 42.2060 -107.1220 309° West 439 505 38,000  Level FlightAware
03:32PM 42.2450 -107.1870 309° West 439 505 38,000  Level FlightAware
03:32PM 42.2710 -107.2310 309° West 439 505 38,000  Level FlightAware
03:33PM 42.3100 -107.2960 309° West 439 505 38,000  Level FlightAware
03:34PM 42.3500 -107.3610 310° West 439 505 38,000  Level FlightAware
03:34PM 42.3890 -107.4270 309° West 439 505 38,000  Level FlightAware
03:35PM 42.4280 -107.4920 309° West 439 505 38,000  Level FlightAware
03:35PM 42.4650 -107.5540 309° West 439 505 38,000  Level FlightAware
03:37PM 42.6711 -107.8742 309° West 444 511 38,000  Level Salt Lake Center
03:38PM 42.7583 -108.0211 309° West 446 513 38,000  Level Salt Lake Center
03:39PM 42.8342 -108.1508 309° West 451 519 38,000  Level Salt Lake Center
03:40PM 42.9211 -108.2975 309° West 450 518 38,000  Level Salt Lake Center
03:41PM 42.9956 -108.4242 309° West 448 516 38,000  Level Salt Lake Center
03:42PM 43.0822 -108.5728 309° West 449 517 38,000  Level Salt Lake Center
03:43PM 43.1561 -108.7000 309° West 448 516 38,000  Level Salt Lake Center
03:44PM 43.2433 -108.8486 309° West 449 517 38,000  Level Salt Lake Center
03:45PM 43.3164 -108.9778 308° West 448 516 38,000  Level Salt Lake Center
03:46PM 43.4028 -109.1278 308° West 449 517 38,000  Level Salt Lake Center
03:47PM 43.4772 -109.2561 309° West 449 517 38,000  Level Salt Lake Center
03:48PM 43.5539 -109.3944 307° West 449 517 38,000  Level Salt Lake Center
03:49PM 43.6394 -109.5453 308° West 447 514 38,000  Level Salt Lake Center
03:50PM 43.7131 -109.6742 308° West 446 513 38,000  Level Salt Lake Center
03:51PM 43.7986 -109.8261 308° West 449 517 38,000  Level Salt Lake Center
03:52PM 43.8722 -109.9578 308° West 452 520 38,000  Level Salt Lake Center
03:53PM 43.9583 -110.1125 308° West 454 522 38,000  Level Salt Lake Center
03:54PM 44.0317 -110.2467 307° West 456 525 38,000  Level Salt Lake Center
03:55PM 44.1181 -110.4028 308° West 457 526 38,000  Level Salt Lake Center
03:56PM 44.1922 -110.5378 307° West 459 528 38,000  Level Salt Lake Center
03:57PM 44.2764 -110.6969 306° West 458 527 38,000  Level Salt Lake Center
03:58PM 44.3508 -110.8325 308° West 460 529 38,000  Level Salt Lake Center
03:59PM 44.4358 -110.9897 307° West 456 525 38,000  Level Salt Lake Center
04:00PM 44.5089 -111.1264 307° West 458 527 38,000  Level Salt Lake Center
04:01PM 44.5942 -111.2842 307° West 459 528 38,000  Level Salt Lake Center
04:02PM 44.6644 -111.4206 306° West 463 533 38,000  Level Salt Lake Center
04:03PM 44.7478 -111.5794 306° West 460 529 38,000  Level Salt Lake Center
04:04PM 44.8194 -111.7161 307° West 456 525 38,000  Level Salt Lake Center
04:06PM 44.9039 -111.8775 306° West 458 527 38,000  Level Salt Lake Center
04:07PM 44.9764 -112.0178 306° West 461 531 38,000  Level Salt Lake Center
04:08PM 45.0603 -112.1800 306° West 459 528 38,000  Level Salt Lake Center
04:09PM 45.1328 -112.3200 306° West 461 531 38,000  Level Salt Lake Center
04:10PM 45.2158 -112.4853 306° West 461 531 38,000  Level Salt Lake Center
04:11PM 45.2969 -112.6153 312° West 462 532 38,000  Level Salt Lake Center
04:12PM 45.4056 -112.7572 317° Northwest 466 536 38,000  Level Salt Lake Center
04:13PM 45.4992 -112.8833 317° Northwest 463 533 38,000  Level Salt Lake Center
04:14PM 45.5942 -113.0106 317° Northwest 466 536 38,000  Level Salt Lake Center
04:15PM 45.6883 -113.1367 317° Northwest 465 535 38,000  Level Salt Lake Center
04:16PM 45.7819 -113.2636 317° Northwest 465 535 38,000  Level Salt Lake Center
04:17PM 45.8750 -113.3917 316° Northwest 464 534 38,000  Level Salt Lake Center
04:18PM 45.9697 -113.5189 317° Northwest 466 536 38,000  Level Salt Lake Center
04:19PM 46.0656 -113.6500 317° Northwest 460 529 38,000  Level Salt Lake Center
04:20PM 46.1578 -113.7764 317° Northwest 459 528 38,000  Level Salt Lake Center
04:21PM 46.2689 -113.9308 316° Northwest 461 531 38,000  Level Salt Lake Center
04:22PM 46.3619 -114.0639 315° West 469 540 38,000  Level Salt Lake Center
04:23PM 46.4556 -114.1967 316° Northwest 470 541 38,000 -60 Level Salt Lake Center
04:24PM 46.5497 -114.3303 316° Northwest 473 544 37,900  Descending Salt Lake Center
04:25PM 46.6442 -114.4636 316° Northwest 472 543 38,000  Climbing Salt Lake Center
04:26PM 46.7381 -114.5992 315° West 473 544 37,900 -60 Descending Salt Lake Center
04:27PM 46.8508 -114.7600 316° Northwest 472 543 37,900  Level Salt Lake Center
04:28PM 46.9439 -114.8936 316° Northwest 470 541 38,000  Climbing Salt Lake Center
04:29PM 47.0372 -115.0283 315° West 470 541 37,900  Descending Salt Lake Center
04:30PM 47.1300 -115.1644 315° West 472 543 38,000  Climbing Salt Lake Center
04:31PM 47.2222 -115.2989 315° West 468 539 38,000 -60 Level Salt Lake Center
04:32PM 47.3144 -115.4364 315° West 469 540 37,900  Descending Salt Lake Center
04:33PM 47.4250 -115.6006 315° West 469 540 38,000  Climbing Salt Lake Center
04:34PM 47.5233 -115.7283 319° Northwest 470 541 38,000  Level Salt Lake Center
04:36PM 47.6258 -115.8489 322° Northwest 471 542 38,000  Level Salt Lake Center
04:37PM 47.7281 -115.9717 321° Northwest 472 543 38,000 -60 Level Salt Lake Center
04:38PM 47.8292 -116.0931 321° Northwest 469 540 37,900  Descending Salt Lake Center
04:39PM 47.9336 -116.2217 320° Northwest 471 542 38,000  Climbing Salt Lake Center
04:40PM 48.0339 -116.3442 321° Northwest 471 542 37,900 -60 Descending Salt Lake Center
04:41PM 48.1753 -116.5183 321° Northwest 474 545 37,900  Level Seattle Center
04:42PM 48.2753 -116.6419 321° Northwest 471 542 37,900  Level Seattle Center
04:43PM 48.3758 -116.7658 321° Northwest 470 541 37,900  Level Seattle Center
04:44PM 48.4775 -116.8931 320° Northwest 473 544 38,000  Climbing Seattle Center
04:45PM 48.5783 -117.0231 320° Northwest 476 548 38,000  Level Seattle Center
04:51PM 49.1600 -117.7700 320° Northwest 472 543 38,000  Level FlightAware
04:51PM 49.2200 -117.8480 320° Northwest 471 542 38,000  Level FlightAware
04:52PM 49.2740 -117.9190 319° Northwest 472 543 38,000  Level FlightAware
04:52PM 49.3360 -118.0000 320° Northwest 472 543 38,000  Level FlightAware
04:53PM 49.4030 -118.0890 319° Northwest 474 545 38,000  Level FlightAware
04:54PM 49.4620 -118.1670 319° Northwest 475 547 38,000  Level FlightAware
04:54PM 49.5240 -118.2490 319° Northwest 475 547 38,000  Level FlightAware
04:55PM 49.5770 -118.3200 319° Northwest 474 545 38,000  Level FlightAware
04:55PM 49.6350 -118.3980 319° Northwest 474 545 38,000  Level FlightAware
04:56PM 49.7090 -118.4970 319° Northwest 474 545 38,000  Level FlightAware
04:57PM 49.7680 -118.5760 319° Northwest 475 547 38,000  Level FlightAware
04:57PM 49.8310 -118.6610 319° Northwest 479 551 38,000  Level FlightAware
04:58PM 49.8870 -118.7380 318° Northwest 482 555 38,000  Level FlightAware
04:59PM 49.9500 -118.8230 319° Northwest 481 554 38,000  Level FlightAware
04:59PM 50.0050 -118.8990 318° Northwest 481 554 38,000  Level FlightAware
05:00PM 50.0600 -118.9740 319° Northwest 482 555 38,000  Level FlightAware
05:00PM 50.1210 -119.0570 319° Northwest 482 555 38,000  Level FlightAware
05:01PM 50.1850 -119.1460 318° Northwest 482 555 38,000  Level FlightAware
05:02PM 50.2420 -119.2260 318° Northwest 484 557 38,000  Level FlightAware
05:02PM 50.3020 -119.3080 319° Northwest 483 556 38,000  Level FlightAware
05:03PM 50.3580 -119.3870 318° Northwest 481 554 38,000  Level FlightAware
05:03PM 50.4170 -119.4700 318° Northwest 480 552 38,000  Level FlightAware
05:04PM 50.4740 -119.5490 319° Northwest 480 552 38,000  Level FlightAware
05:04PM 50.5330 -119.6320 318° Northwest 483 556 38,000  Level FlightAware
05:05PM 50.5980 -119.7250 318° Northwest 484 557 38,000  Level FlightAware
05:06PM 50.6510 -119.7990 318° Northwest 483 556 38,000  Level FlightAware
05:06PM 50.7120 -119.8860 318° Northwest 482 555 38,000  Level FlightAware
05:07PM 50.7680 -119.9660 318° Northwest 483 556 38,000  Level FlightAware
05:07PM 50.8260 -120.0500 318° Northwest 482 555 38,000  Level FlightAware
05:08PM 50.8810 -120.1300 317° Northwest 482 555 38,000  Level FlightAware
05:09PM 50.9410 -120.2160 318° Northwest 484 557 38,000  Level FlightAware
05:09PM 50.9940 -120.2920 318° Northwest 489 563 38,000  Level FlightAware
05:10PM 51.0540 -120.3790 318° Northwest 484 557 38,000  Level FlightAware
05:10PM 51.1160 -120.4700 317° Northwest 482 555 38,000  Level FlightAware
05:11PM 51.1760 -120.5580 317° Northwest 480 552 38,000  Level FlightAware
05:11PM 51.2140 -120.6210 314° West 476 548 38,000  Level FlightAware
05:12PM 51.2700 -120.7330 309° West 475 547 38,000  Level FlightAware
05:13PM 51.3210 -120.8360 308° West 480 552 38,000  Level FlightAware
05:13PM 51.3670 -120.9290 308° West 479 551 38,000  Level FlightAware
05:14PM 51.4150 -121.0280 308° West 481 554 38,000  Level FlightAware
05:14PM 51.4670 -121.1360 308° West 481 554 38,000  Level FlightAware
05:15PM 51.5110 -121.2270 308° West 481 554 38,000  Level FlightAware
05:16PM 51.5600 -121.3280 308° West 481 554 38,000  Level FlightAware
05:16PM 51.6050 -121.4220 308° West 481 554 38,000  Level FlightAware
05:17PM 51.6570 -121.5300 308° West 482 555 38,000  Level FlightAware
05:17PM 51.7000 -121.6210 307° West 482 555 38,000  Level FlightAware
05:18PM 51.7400 -121.7040 308° West 480 552 38,000  Level FlightAware
05:18PM 51.7970 -121.8240 308° West 479 551 38,000  Level FlightAware
05:19PM 51.8390 -121.9130 307° West 480 552 38,000  Level FlightAware
05:20PM 51.8870 -122.0160 307° West 481 554 38,000  Level FlightAware
05:20PM 51.9350 -122.1190 307° West 486 559 38,000  Level FlightAware
05:21PM 51.9840 -122.2240 307° West 488 562 38,000  Level FlightAware
05:21PM 52.0330 -122.3290 307° West 486 559 38,000  Level FlightAware
05:22PM 52.0760 -122.4220 307° West 487 560 38,000  Level FlightAware
05:23PM 52.1260 -122.5290 307° West 492 566 38,000  Level FlightAware
05:23PM 52.1720 -122.6260 308° West 486 559 38,000  Level FlightAware
05:24PM 52.2180 -122.7260 307° West 486 559 38,000  Level FlightAware
05:24PM 52.2720 -122.8420 307° West 487 560 38,000  Level FlightAware
05:25PM 52.3150 -122.9370 307° West 487 560 38,000  Level FlightAware
05:25PM 52.3640 -123.0430 307° West 485 558 38,000  Level FlightAware
05:26PM 52.4110 -123.1470 307° West 488 562 38,000  Level FlightAware
05:27PM 52.4550 -123.2440 307° West 493 567 38,000  Level FlightAware
05:27PM 52.5040 -123.3510 307° West 493 567 38,000  Level FlightAware
05:28PM 52.5450 -123.4420 307° West 496 571 38,000  Level FlightAware
05:28PM 52.5950 -123.5540 306° West 496 571 38,000  Level FlightAware
05:29PM 52.6460 -123.6680 306° West 496 571 38,000  Level FlightAware
05:30PM 52.6980 -123.7850 306° West 496 571 38,000  Level FlightAware
05:30PM 52.7450 -123.8900 307° West 496 571 38,000  Level FlightAware
05:31PM 52.7880 -123.9870 306° West 496 571 38,000  Level FlightAware
05:31PM 52.8460 -124.1200 306° West 500 575 38,000  Level FlightAware
05:32PM 52.8950 -124.2320 306° West 500 575 38,000  Level FlightAware
05:33PM 52.9440 -124.3440 306° West 499 574 38,000  Level FlightAware
05:33PM 52.9870 -124.4440 306° West 499 574 38,000  Level FlightAware
05:34PM 53.0310 -124.5440 306° West 504 580 38,000  Level FlightAware
05:34PM 53.0820 -124.6640 305° West 504 580 38,000  Level FlightAware
05:35PM 53.1300 -124.7770 305° West 506 582 38,000  Level FlightAware
05:36PM 53.1790 -124.8900 306° West 505 581 38,000  Level FlightAware
05:36PM 53.2220 -124.9930 305° West 505 581 38,000  Level FlightAware
05:37PM 53.2710 -125.1070 306° West 506 582 38,000  Level FlightAware
05:37PM 53.3200 -125.2240 305° West 508 585 38,000  Level FlightAware
05:38PM 53.3670 -125.3370 305° West 507 583 38,000  Level FlightAware
05:38PM 53.4110 -125.4420 305° West 505 581 38,000  Level FlightAware
05:39PM 53.4590 -125.5570 305° West 503 579 38,000  Level FlightAware
05:40PM 53.5080 -125.6760 305° West 505 581 38,000  Level FlightAware
05:40PM 53.5400 -125.7550 304° West 505 581 38,000  Level FlightAware
05:41PM 53.5980 -125.8950 305° West 506 582 38,000  Level FlightAware
05:41PM 53.6380 -125.9930 305° West 507 583 38,000  Level FlightAware
05:42PM 53.6910 -126.1240 304° West 504 580 38,000  Level FlightAware
05:43PM 53.7380 -126.2400 304° West 503 579 38,000  Level FlightAware
05:43PM 53.7800 -126.3430 305° West 502 578 38,000  Level FlightAware
05:44PM 53.8270 -126.4630 304° West 502 578 38,000  Level FlightAware
05:44PM 53.8730 -126.5780 304° West 503 579 38,000  Level FlightAware
05:45PM 53.9170 -126.6900 304° West 502 578 38,000  Level FlightAware
05:45PM 53.9630 -126.8060 304° West 503 579 38,000  Level FlightAware
05:46PM 54.0100 -126.9250 304° West 508 585 38,000  Level FlightAware
05:47PM 54.0570 -127.0450 304° West 510 587 38,000  Level FlightAware
05:47PM 54.0990 -127.1540 303° West 513 590 38,000  Level FlightAware
05:48PM 54.1410 -127.2600 304° West 518 596 38,000  Level FlightAware
05:48PM 54.1900 -127.3870 303° West 516 594 38,000  Level FlightAware
05:49PM 54.2370 -127.5090 303° West 514 592 38,000  Level FlightAware
05:50PM 54.2850 -127.6350 303° West 515 593 38,000  Level FlightAware
05:50PM 54.3310 -127.7560 303° West 516 594 38,000  Level FlightAware
05:51PM 54.3730 -127.8670 303° West 516 594 38,000  Level FlightAware
05:51PM 54.4140 -127.9760 303° West 516 594 38,000  Level FlightAware
05:52PM 54.4630 -128.1080 303° West 515 593 38,000  Level FlightAware
05:53PM 54.5160 -128.2500 303° West 515 593 38,000  Level FlightAware
05:53PM 54.5550 -128.3600 301° West 515 593 38,000  Level FlightAware
05:54PM 54.6080 -128.4990 303° West 513 590 38,000  Level FlightAware
05:54PM 54.6510 -128.6170 302° West 513 590 38,000  Level FlightAware
05:55PM 54.6900 -128.7240 302° West 513 590 38,000  Level FlightAware
05:56PM 54.7280 -128.8300 302° West 513 590 38,000  Level FlightAware
05:56PM 54.7680 -128.9400 302° West 513 590 38,000  Level FlightAware
05:57PM 54.8060 -129.0470 302° West 513 590 38,000  Level FlightAware
05:57PM 54.8440 -129.1540 302° West 513 590 38,000  Level FlightAware
05:58PM 54.8840 -129.2640 302° West 513 590 38,000  Level FlightAware
05:59PM 54.9220 -129.3710 302° West 513 590 38,000  Level FlightAware
05:59PM 54.9610 -129.4780 302° West 513 590 38,000  Level FlightAware
06:00PM 54.9990 -129.5850 302° West 513 590 38,000  Level FlightAware
06:00PM 55.0380 -129.6930 302° West 513 590 38,000  Level FlightAware
06:01PM 55.0760 -129.8000 302° West 513 590 38,000  Level FlightAware
06:02PM 55.1160 -129.9110 302° West 513 590 38,000  Level FlightAware
06:02PM 55.1550 -130.0220 302° West 513 590 38,000  Level FlightAware
06:03PM 55.1940 -130.1300 302° West 513 590 38,000  Level FlightAware
06:03PM 55.2320 -130.2380 302° West 513 590 38,000  Level FlightAware
06:05PM 55.4167 -130.8167 302° West 520 598 38,000  Level Anchorage Center
06:06PM 55.4833 -131.0333 299° West 520 598 38,000  Level Anchorage Center
06:07PM 55.5667 -131.2500 304° West 510 587 38,000  Level Anchorage Center
06:08PM 55.6333 -131.4500 301° West 500 575 38,000  Level Anchorage Center
06:09PM 55.7000 -131.6667 299° West 510 587 38,000  Level Anchorage Center
06:10PM 55.7667 -131.8833 299° West 510 587 38,000  Level Anchorage Center
06:11PM 55.8333 -132.1167 297° West 520 598 38,000  Level Anchorage Center
06:12PM 55.9167 -132.3333 305° West 510 587 38,000  Level Anchorage Center
06:13PM 55.9833 -132.5500 299° West 510 587 38,000  Level Anchorage Center
06:14PM 56.0500 -132.7667 299° West 510 587 38,000  Level Anchorage Center
06:15PM 56.1167 -133.0000 297° West 510 587 38,000  Level Anchorage Center
06:16PM 56.1833 -133.2167 299° West 520 598 38,000  Level Anchorage Center
06:17PM 56.2500 -133.4500 297° West 520 598 38,000  Level Anchorage Center
06:18PM 56.3167 -133.6833 297° West 510 587 38,000  Level Anchorage Center
06:19PM 56.3833 -133.9000 299° West 510 587 38,000  Level Anchorage Center
06:20PM 56.4500 -134.1333 297° West 510 587 38,000  Level Anchorage Center
06:21PM 56.5167 -134.3500 299° West 500 575 38,000  Level Anchorage Center
06:22PM 56.5833 -134.5667 299° West 500 575 38,000  Level Anchorage Center
06:23PM 56.6500 -134.8000 298° West 500 575 38,000  Level Anchorage Center
06:24PM 56.7000 -135.0167 293° West 500 575 38,000  Level Anchorage Center
06:25PM 56.7667 -135.2500 298° West 500 575 38,000  Level Anchorage Center
06:26PM 56.8333 -135.4833 298° West 520 598 38,000  Level Anchorage Center
06:27PM 56.8833 -135.7333 290° West 510 587 38,000  Level Anchorage Center
06:28PM 56.9333 -135.9500 293° West 510 587 38,000  Level Anchorage Center
06:28PM 56.9667 -136.2167 283° West 490 564 38,000  Level Vancouver Center
06:30PM 57.0167 -136.4333 293° West 510 587 38,000  Level Anchorage Center
06:31PM 57.0667 -136.6833 290° West 510 587 38,000  Level Anchorage Center
06:32PM 57.1167 -136.9167 292° West 510 587 38,000  Level Anchorage Center
06:33PM 57.1500 -137.1667 284° West 500 575 38,000  Level Anchorage Center
06:33PM 57.1833 -137.3833 286° West 510 587 38,000  Level Vancouver Center
06:34PM 57.2333 -137.6333 290° West 510 587 38,000  Level Vancouver Center
06:35PM 57.2667 -137.8667 285° West 510 587 38,000  Level Vancouver Center
06:36PM 57.3167 -138.1333 289° West 510 587 38,000  Level Vancouver Center
06:37PM 57.3500 -138.3667 285° West 510 587 38,000  Level Vancouver Center
06:38PM 57.4000 -138.6167 290° West 500 575 38,000  Level Vancouver Center
06:39PM 57.4500 -138.8500 292° West 500 575 38,000  Level Vancouver Center
06:41PM 57.5000 -139.1167 289° West 490 564 38,000  Level Anchorage Center
06:42PM 57.5333 -139.3500 285° West 490 564 38,000  Level Anchorage Center
06:43PM 57.5667 -139.6000 284° West 490 564 38,000  Level Anchorage Center
06:44PM 57.6000 -139.8500 284° West 490 564 38,000  Level Anchorage Center
06:45PM 57.6500 -140.1000 291° West 490 564 38,000  Level Anchorage Center
06:46PM 57.6833 -140.3333 285° West 490 564 38,000  Level Anchorage Center
06:47PM 57.7167 -140.5833 284° West 490 564 38,000  Level Anchorage Center
06:48PM 57.7500 -140.8333 284° West 490 564 38,000  Level Anchorage Center
06:49PM 57.7833 -141.0833 284° West 490 564 38,000  Level Anchorage Center
06:50PM 57.8333 -141.3333 291° West 500 575 38,000  Level Anchorage Center
06:51PM 57.8667 -141.5833 284° West 490 564 38,000  Level Anchorage Center
06:52PM 57.9000 -141.8167 285° West 480 552 38,000  Level Anchorage Center
06:53PM 57.9333 -142.0667 284° West 480 552 38,000  Level Anchorage Center
06:54PM 57.9833 -142.3000 292° West 490 564 38,000  Level Anchorage Center
06:55PM 58.0167 -142.5500 284° West 490 564 38,000  Level Anchorage Center
06:56PM 58.0667 -142.8000 291° West 490 564 38,000  Level Anchorage Center
06:57PM 58.1000 -143.0500 284° West 480 552 38,000  Level Anchorage Center
06:58PM 58.1333 -143.3000 284° West 480 552 38,000  Level Anchorage Center
06:59PM 58.1833 -143.5333 292° West 480 552 38,000  Level Anchorage Center
07:00PM 58.2167 -143.7833 284° West 490 564 38,000  Level Anchorage Center
07:01PM 58.2500 -144.0333 284° West 480 552 38,000  Level Anchorage Center
07:02PM 58.2833 -144.2833 284° West 480 552 38,000  Level Anchorage Center
07:03PM 58.3333 -144.5167 292° West 480 552 38,000  Level Anchorage Center
07:04PM 58.3667 -144.7667 284° West 480 552 38,000  Level Anchorage Center
07:05PM 58.4000 -145.0167 284° West 480 552 38,000  Level Anchorage Center
07:06PM 58.4333 -145.2833 284° West 490 564 38,000  Level Anchorage Center
07:07PM 58.4667 -145.5333 284° West 480 552 38,000  Level Anchorage Center
07:08PM 58.5000 -145.7833 284° West 480 552 38,000  Level Anchorage Center
07:09PM 58.5333 -146.0333 284° West 480 552 38,000  Level Anchorage Center
07:10PM 58.5667 -146.2833 284° West 490 564 38,000  Level Anchorage Center
07:11PM 58.6000 -146.5333 284° West 480 552 38,000  Level Anchorage Center
07:12PM 58.6333 -146.8000 284° West 490 564 38,000  Level Anchorage Center
07:13PM 58.6667 -147.0500 284° West 480 552 38,000  Level Anchorage Center
07:14PM 58.7000 -147.3000 284° West 490 564 38,000  Level Anchorage Center
07:20PM 58.8750 -148.7990 284° West 482 555 38,000  Level FlightAware
07:20PM 58.8910 -148.9440 282° West 483 556 38,000  Level FlightAware
07:21PM 58.9070 -149.0970 282° West 484 557 38,000  Level FlightAware
07:21PM 58.9240 -149.2550 282° West 482 555 38,000  Level FlightAware
07:22PM 58.9410 -149.4140 282° West 483 556 38,000  Level FlightAware
07:23PM 58.9550 -149.5560 281° West 483 556 38,000  Level FlightAware
07:23PM 58.9710 -149.7080 282° West 485 558 38,000  Level FlightAware
07:24PM 58.9850 -149.8530 281° West 485 558 38,000  Level FlightAware
07:25PM 59.0020 -150.0450 280° West 483 556 38,000  Level FlightAware
07:25PM 59.0130 -150.1770 279° West 483 556 38,000  Level FlightAware
07:26PM 59.0240 -150.3080 279° West 483 556 38,000  Level FlightAware
07:26PM 59.0350 -150.4430 279° West 483 556 38,000  Level FlightAware
07:27PM 59.0230 -150.6780 264° West 485 558 38,000  Level FlightAware
07:28PM 59.0270 -150.8110 273° West 485 558 38,000  Level FlightAware
07:28PM 59.0300 -150.9440 273° West 485 558 38,000  Level FlightAware
07:29PM 59.0400 -151.1730 275° West 486 559 38,000  Level FlightAware
07:29PM 59.0440 -151.3180 273° West 486 559 38,000  Level FlightAware
07:30PM 59.0490 -151.4740 274° West 485 558 38,000  Level FlightAware
07:31PM 59.0530 -151.6300 273° West 485 558 38,000 300 Level FlightAware
07:31PM 59.0570 -151.7870 273° West 485 558 38,400 780 Climbing FlightAware
07:32PM 59.0600 -151.9260 272° West 484 557 38,900 540 Climbing FlightAware
07:32PM 59.0640 -152.1040 273° West 483 556 39,100 120 Climbing FlightAware
07:33PM 59.0660 -152.2370 272° West 483 556 39,100 600 Level FlightAware
07:34PM 59.0720 -152.4840 273° West 485 558 40,000 600 Climbing FlightAware
07:35PM 59.0750 -152.6500 272° West 485 558 40,000  Level FlightAware
07:35PM 59.0790 -152.8350 272° West 485 558 40,000  Level FlightAware
07:36PM 59.0810 -152.9690 272° West 485 558 40,000  Level FlightAware
07:37PM 59.0840 -153.1750 272° West 486 559 40,000  Level FlightAware
07:37PM 59.0860 -153.3570 271° West 487 560 40,000  Level FlightAware
07:38PM 59.0880 -153.5270 271° West 487 560 40,000  Level FlightAware
07:38PM 59.0900 -153.6780 272° West 488 562 40,000  Level FlightAware
07:39PM 59.0910 -153.8420 271° West 489 563 40,000  Level FlightAware
07:40PM 59.0920 -153.9770 271° West 489 563 40,000  Level FlightAware
07:40PM 59.0930 -154.1040 271° West 489 563 40,000  Level FlightAware
07:41PM 59.0950 -154.2430 272° West 489 563 40,000  Level FlightAware
07:42PM 59.0960 -154.3770 271° West 489 563 40,000  Level FlightAware
07:42PM 59.0970 -154.5120 271° West 489 563 40,000  Level FlightAware
07:43PM 59.0980 -154.6470 271° West 489 563 40,000  Level FlightAware
07:43PM 59.0990 -154.7820 271° West 489 563 40,000  Level FlightAware
07:44PM 59.1010 -154.9160 272° West 489 563 40,000  Level FlightAware
07:45PM 59.1020 -155.0510 271° West 489 563 40,000  Level FlightAware
07:45PM 59.1030 -155.1940 271° West 489 563 40,000  Level FlightAware
07:46PM 59.1040 -155.3320 271° West 489 563 40,000  Level FlightAware
07:46PM 59.1060 -155.4670 272° West 489 563 40,000  Level FlightAware
07:47PM 59.1070 -155.6020 271° West 489 563 40,000  Level FlightAware
07:48PM 59.1080 -155.7370 271° West 489 563 40,000  Level FlightAware
07:48PM 59.1090 -155.8710 271° West 489 563 40,000  Level FlightAware
07:49PM 59.0833 -156.3833 271° West 480 552 40,000  Level Anchorage Center
07:50PM 59.0833 -156.6500 270° West 490 564 40,000  Level Anchorage Center
07:51PM 59.0833 -156.9167 270° West 480 552 40,000  Level Anchorage Center
07:52PM 59.0667 -157.1833 263° West 490 564 40,000  Level Anchorage Center
07:53PM 59.0667 -157.4333 270° West 480 552 40,000  Level Anchorage Center
07:54PM 59.0667 -157.7000 270° West 480 552 40,000  Level Anchorage Center
07:55PM 59.0500 -157.9667 263° West 490 564 40,000  Level Anchorage Center
07:56PM 59.0500 -158.2333 270° West 480 552 40,000  Level Anchorage Center
07:57PM 59.0333 -158.5000 263° West 490 564 40,000  Level Anchorage Center
07:58PM 59.0333 -158.7667 270° West 480 552 40,000  Level Anchorage Center
07:59PM 59.0167 -159.0333 263° West 480 552 40,000  Level Anchorage Center
08:00PM 59.0167 -159.2833 270° West 480 552 40,000  Level Anchorage Center
08:01PM 59.0000 -159.5500 263° West 480 552 40,000  Level Anchorage Center
08:02PM 59.0000 -159.8167 270° West 490 564 40,000  Level Anchorage Center
08:03PM 59.0000 -160.0833 270° West 480 552 40,000  Level Anchorage Center
08:04PM 59.0000 -160.3500 270° West 490 564 40,000  Level Anchorage Center
08:05PM 59.0000 -160.6167 270° West 490 564 40,000  Level Anchorage Center
08:06PM 59.0000 -160.8833 270° West 490 564 40,000  Level Anchorage Center
08:07PM 59.0000 -161.1500 270° West 490 564 40,000  Level Anchorage Center
08:08PM 59.0000 -161.4167 270° West 490 564 40,000  Level Anchorage Center
08:09PM 58.9833 -161.6667 263° West 490 564 40,000  Level Anchorage Center
08:10PM 58.9833 -161.9333 270° West 490 564 40,000  Level Anchorage Center
08:11PM 58.9833 -162.2500 270° West 490 564 40,000  Level Anchorage Center
08:12PM 58.9833 -162.5167 270° West 490 564 40,000  Level Anchorage Center
08:13PM 58.9833 -162.7333 270° West 500 575 40,000  Level Anchorage Center
08:14PM 58.9667 -163.0000 263° West 490 564 40,000  Level Anchorage Center
08:15PM 58.9667 -163.3167 270° West 490 564 40,000  Level Anchorage Center
08:16PM 58.9667 -163.5833 270° West 490 564 40,000  Level Anchorage Center
08:17PM 58.9500 -163.8667 264° West 490 564 40,000  Level Anchorage Center
08:18PM 58.9500 -164.1333 270° West 490 564 40,000  Level Anchorage Center
08:19PM 58.9500 -164.4000 270° West 490 564 40,000  Level Anchorage Center
08:20PM 58.9333 -164.6667 263° West 490 564 40,000  Level Anchorage Center
08:21PM 58.9333 -164.9333 270° West 500 575 40,000  Level Anchorage Center
08:22PM 58.9167 -165.2000 263° West 490 564 40,000  Level Anchorage Center
08:23PM 58.9000 -165.4667 263° West 500 575 40,000  Level Anchorage Center
08:24PM 58.9000 -165.7333 270° West 490 564 40,000  Level Anchorage Center
08:25PM 58.8833 -166.0000 263° West 500 575 40,000  Level Anchorage Center
08:26PM 58.8667 -166.2667 263° West 500 575 40,000  Level Anchorage Center
08:27PM 58.8500 -166.5333 263° West 500 575 40,000  Level Anchorage Center
08:28PM 58.8167 -166.8000 257° West 490 564 40,000  Level Anchorage Center
08:29PM 58.8000 -167.0667 263° West 500 575 40,000  Level Anchorage Center
08:30PM 58.7833 -167.3333 263° West 500 575 40,000  Level Anchorage Center
08:31PM 58.7500 -167.6000 257° West 490 564 40,000  Level Anchorage Center
08:32PM 58.7333 -167.8667 263° West 510 587 40,000  Level Anchorage Center
08:33PM 58.7000 -168.1333 257° West 500 575 40,000  Level Anchorage Center
08:34PM 58.6667 -168.3833 256° West 500 575 40,000  Level Anchorage Center
08:35PM 58.6333 -168.6333 256° West 480 552 40,000  Level Anchorage Center
08:36PM 58.6167 -168.9333 264° West 510 587 40,000  Level Anchorage Center
08:37PM 58.6000 -169.2000 263° West 500 575 40,000  Level Anchorage Center
08:38PM 58.5667 -169.4500 256° West 500 575 40,000  Level Anchorage Center
08:39PM 58.5333 -169.7167 257° West 510 587 40,000  Level Anchorage Center
08:40PM 58.5000 -169.9833 257° West 510 587 40,000  Level Anchorage Center
08:41PM 58.4667 -170.2333 256° West 490 564 40,000  Level Anchorage Center
08:42PM 58.4500 -170.5167 264° West 510 587 40,000  Level Anchorage Center
08:43PM 58.4167 -170.7667 256° West 500 575 40,000  Level Anchorage Center
08:45PM 58.3631 -171.1226 258° West  Level FlightAware Approximate
08:46PM 58.3167 -171.6000 256° West 510 587 40,000  Level Anchorage Center
08:52PM 58.1146 -173.1086 255° West 510 587 40,000  Level FlightAware Transoceanic
08:53PM 58.0793 -173.3583 255° West 510 587 40,000  Level FlightAware Transoceanic
08:54PM 58.0434 -173.6075 255° West 510 587 40,000  Level FlightAware Transoceanic
08:55PM 58.0070 -173.8562 254° West 510 587 40,000  Level FlightAware Transoceanic
08:56PM 57.9701 -174.1045 254° West 510 587 40,000  Level FlightAware Transoceanic
08:56PM 57.9833 -174.0833 254° West 509 586 40,000  Level Anchorage Center
08:57PM 57.9328 -174.3522 254° West 510 587 40,000  Level FlightAware Transoceanic
08:58PM 57.8950 -174.5994 254° West 510 587 40,000  Level FlightAware Transoceanic
08:59PM 57.8567 -174.8460 254° West 510 587 40,000  Level FlightAware Transoceanic
09:00PM 57.8179 -175.0922 253° West 510 587 40,000  Level FlightAware Transoceanic
09:01PM 57.7787 -175.3378 253° West 510 587 40,000  Level FlightAware Transoceanic
09:02PM 57.7451 -175.5735 253° West 509 586 40,000  Level FlightAware Transoceanic
09:03PM 57.7037 -175.8200 252° West 509 586 40,000  Level FlightAware Transoceanic
09:04PM 57.6618 -176.0659 252° West 509 586 40,000  Level FlightAware Transoceanic
09:05PM 57.6195 -176.3111 252° West 509 586 40,000  Level FlightAware Transoceanic
09:05PM 57.5833 -176.5000 253° West 503 579 40,000  Level Anchorage Center
09:06PM 57.5766 -176.5559 252° West 509 586 40,000  Level FlightAware Transoceanic
09:07PM 57.5333 -176.8000 245° Southwest 509 586 40,000  Level FlightAware Transoceanic
09:07PM 57.5333 -176.8000 245° Southwest 507 583 40,000  Level Anchorage Center
09:08PM 57.4770 -177.0236 245° Southwest 509 586 40,000  Level FlightAware Transoceanic
09:09PM 57.4203 -177.2466 245° Southwest 509 586 40,000  Level FlightAware Transoceanic
09:10PM 57.3631 -177.4688 244° Southwest 509 586 40,000  Level FlightAware Transoceanic
09:11PM 57.3056 -177.6903 244° Southwest 509 586 40,000  Level FlightAware Transoceanic
09:12PM 57.2533 -177.8900 244° Southwest 503 579 40,000  Level FlightAware Transoceanic
09:13PM 57.1824 -178.1577 244° Southwest 507 583 40,000  Level FlightAware Transoceanic
09:14PM 57.1225 -178.3815 244° Southwest 507 583 40,000  Level FlightAware Transoceanic
09:15PM 57.0622 -178.6045 243° Southwest 507 583 40,000  Level FlightAware Transoceanic
09:15PM 57.0333 -178.7500 243° Southwest 504 580 40,000  Level Anchorage Center
09:16PM 57.0015 -178.8268 243° Southwest 507 583 40,000  Level FlightAware Transoceanic
09:17PM 56.9404 -179.0484 243° Southwest 507 583 40,000  Level FlightAware Transoceanic
09:18PM 56.8790 -179.2692 243° Southwest 507 583 40,000  Level FlightAware Transoceanic
09:19PM 56.8171 -179.4893 243° Southwest 507 583 40,000  Level FlightAware Transoceanic
09:20PM 56.7549 -179.7088 243° Southwest 507 583 40,000  Level FlightAware Transoceanic
09:21PM 56.6662 179.9500 242° Southwest 504 580 40,000  Level FlightAware Transoceanic
09:22PM 56.6037 179.7358 242° Southwest 504 580 40,000  Level FlightAware Transoceanic
09:23PM 56.5408 179.5223 242° Southwest 504 580 40,000  Level FlightAware Transoceanic
09:24PM 56.4776 179.3095 242° Southwest 504 580 40,000  Level FlightAware Transoceanic
09:25PM 56.4140 179.0975 241° Southwest 504 580 40,000  Level FlightAware Transoceanic
09:25PM 56.4000 179.0667 241° Southwest 505 581 40,000  Level Anchorage Center
09:26PM 56.3501 178.8861 241° Southwest 504 580 40,000  Level FlightAware Transoceanic
09:27PM 56.2858 178.6755 241° Southwest 504 580 40,000  Level FlightAware Transoceanic
09:28PM 56.2211 178.4655 241° Southwest 504 580 40,000  Level FlightAware Transoceanic
09:29PM 56.1561 178.2563 241° Southwest 504 580 40,000  Level FlightAware Transoceanic
09:30PM 56.0907 178.0478 241° Southwest 504 580 40,000  Level FlightAware Transoceanic
09:30PM 56.0667 177.9833 241° Southwest 500 575 40,000  Level Anchorage Center
09:31PM 56.0134 177.8156 240° Southwest 505 581 40,000  Level FlightAware Transoceanic
09:32PM 55.9477 177.6095 240° Southwest 505 581 40,000  Level FlightAware Transoceanic
09:33PM 55.8817 177.4042 240° Southwest 505 581 40,000  Level FlightAware Transoceanic
09:33PM 55.8333 177.2667 239° Southwest 530 610 40,000  Level Anchorage Center
09:34PM 55.8153 177.1995 240° Southwest 505 581 40,000  Level FlightAware Transoceanic
09:34PM 55.7667 177.0833 237° Southwest 500 575 40,000  Level Anchorage Center
09:35PM 55.7487 176.9955 240° Southwest 505 581 40,000  Level FlightAware Transoceanic
09:35PM 55.7000 176.8667 241° Southwest 490 564 40,000  Level Anchorage Center
09:36PM 55.6566 176.7161 240° Southwest 500 575 40,000  Level FlightAware Transoceanic
09:36PM 55.6333 176.6833 237° Southwest 490 564 40,000  Level Anchorage Center
09:37PM 55.5870 176.5075 239° Southwest 500 575 40,000  Level FlightAware Transoceanic
09:37PM 55.5667 176.4500 243° Southwest 500 575 40,000  Level Anchorage Center
09:38PM 55.5171 176.2996 239° Southwest 500 575 40,000  Level FlightAware Transoceanic
09:38PM 55.4833 176.2167 238° Southwest 500 575 40,000  Level Anchorage Center
09:39PM 55.4167 176.0333 237° Southwest 500 575 40,000  Level Anchorage Center
09:40PM 55.3500 175.8000 243° Southwest 500 575 40,000  Level Anchorage Center
09:41PM 55.2833 175.6167 237° Southwest 500 575 40,000  Level Anchorage Center
09:42PM 55.2000 175.4000 236° Southwest 500 575 40,000  Level Anchorage Center
09:43PM 55.1333 175.2167 238° Southwest 490 564 40,000  Level Anchorage Center
09:44PM 55.0667 174.9833 244° Southwest 500 575 40,000  Level Anchorage Center
09:45PM 54.9833 174.7667 236° Southwest 500 575 40,000  Level Anchorage Center
09:46PM 54.9167 174.6000 235° Southwest 500 575 40,000  Level Anchorage Center
09:47PM 54.8333 174.3667 238° Southwest 490 564 40,000  Level Anchorage Center
09:48PM 54.7667 174.2000 235° Southwest 500 575 40,000  Level Anchorage Center
09:49PM 54.6833 173.9833 236° Southwest 490 564 40,000  Level Anchorage Center
09:50PM 54.6333 173.8000 245° Southwest 500 575 40,000  Level Anchorage Center
09:51PM 54.5500 173.5833 237° Southwest 490 564 40,000  Level Anchorage Center
09:52PM 54.4833 173.4167 235° Southwest 480 552 40,000  Level Anchorage Center
09:53PM 54.4000 173.2000 237° Southwest 500 575 40,000  Level Anchorage Center
09:54PM 54.3167 172.9833 237° Southwest 510 587 40,000  Level Anchorage Center
09:55PM 54.2500 172.8167 236° Southwest 500 575 40,000  Level Anchorage Center
09:56PM 54.1667 172.6000 237° Southwest 490 564 40,000  Level Anchorage Center
09:57PM 54.1000 172.4333 236° Southwest 490 564 40,000  Level Anchorage Center
09:58PM 54.0167 172.2333 235° Southwest 490 564 40,000  Level Anchorage Center
09:59PM 53.9333 172.0500 232° Southwest 510 587 40,000  Level Anchorage Center
10:00PM 53.8500 171.8500 235° Southwest 500 575 40,000  Level Anchorage Center
10:02PM 53.7000 171.4833 235° Southwest 500 575 40,000  Level Anchorage Center
10:03PM 53.6167 171.2833 235° Southwest 490 564 40,000  Level Anchorage Center
10:05PM 53.4500 170.9167 233° Southwest 470 541 40,000  Level Anchorage Center
10:06PM 53.3833 170.7500 236° Southwest 500 575 40,000  Level Anchorage Center
10:07PM 53.3000 170.5667 233° Southwest 480 552 40,000  Level Anchorage Center
10:08PM 53.2167 170.4000 230° Southwest 500 575 40,000  Level Anchorage Center
10:09PM 53.1333 170.2000 235° Southwest 490 564 40,000  Level Anchorage Center
10:10PM 53.0500 170.0000 235° Southwest 500 575 40,000  Level Anchorage Center
10:12PM 52.9000 169.6167 237° Southwest 510 587 40,000  Level Anchorage Center
10:13PM 52.8500 169.4500 244° Southwest 500 575 40,000  Level Anchorage Center
10:14PM 52.7667 169.2333 238° Southwest 490 564 40,000  Level Anchorage Center
10:15PM 52.7167 169.0667 244° Southwest 490 564 40,000  Level Anchorage Center
10:16PM 52.6333 168.8500 238° Southwest 490 564 40,000  Level Anchorage Center
10:17PM 52.5667 168.6333 243° Southwest 500 575 40,000  Level Anchorage Center
10:18PM 52.5000 168.4667 237° Southwest 490 564 40,000  Level Anchorage Center
10:19PM 52.4333 168.2667 241° Southwest 480 552 40,000  Level Anchorage Center
10:20PM 52.3667 168.1000 237° Southwest 490 564 40,000  Level Anchorage Center
10:21PM 52.3000 167.8833 243° Southwest 490 564 40,000  Level Anchorage Center
10:22PM 52.2333 167.7167 237° Southwest 490 564 40,000  Level Anchorage Center
10:23PM 52.1667 167.5167 242° Southwest 480 552 40,000  Level Anchorage Center
10:26PM 52.0504 167.2018 239° Southwest  Level FlightAware Approximate
10:32PM 51.5500 165.8667 238° Southwest 488 562 40,000  Level Anchorage Center
10:33PM 51.5632 165.9226 239° Southwest  Level FlightAware Approximate
10:33PM 51.4333 165.5500 238° Southwest 486 559 40,000  Level Anchorage Center
10:34PM 51.4925 165.7421 238° Southwest  Level FlightAware Approximate
10:35PM 51.4215 165.5622 238° Southwest  Level FlightAware Approximate
10:36PM 51.3515 165.3815 238° Southwest  Level FlightAware Approximate
10:37PM 51.2814 165.2013 238° Southwest  Level FlightAware Approximate
10:38PM 51.1218 164.7883 237° Southwest 488 562 40,000  Level FlightAware Transoceanic
10:39PM 51.0495 164.6106 237° Southwest 488 562 40,000  Level FlightAware Transoceanic
10:40PM 50.9975 164.4691 237° Southwest 486 559 40,000  Level FlightAware Transoceanic
10:40PM 50.9500 164.3833 237° Southwest 485 558 40,000  Level Anchorage Center
10:41PM 50.9239 164.2910 237° Southwest 486 559 40,000  Level FlightAware Transoceanic
10:41PM 50.8500 164.1333 237° Southwest 482 555 40,000  Level Anchorage Center
10:42PM 50.8500 164.1134 237° Southwest 486 559 40,000  Level FlightAware Transoceanic
10:43PM 50.7759 163.9363 236° Southwest 486 559 40,000  Level FlightAware Transoceanic
10:44PM 50.7015 163.7598 236° Southwest 486 559 40,000  Level FlightAware Transoceanic
10:45PM 50.6268 163.5839 236° Southwest 486 559 40,000  Level FlightAware Transoceanic
10:46PM 50.5147 163.3440 236° Southwest 485 558 40,000  Level FlightAware Transoceanic
10:47PM 50.4413 163.1727 236° Southwest 485 558 40,000  Level FlightAware Transoceanic
10:48PM 50.4013 163.0744 236° Southwest 482 555 40,000  Level FlightAware Transoceanic
10:49PM 50.3256 162.8998 236° Southwest 482 555 40,000  Level FlightAware Transoceanic
10:50PM 50.2496 162.7259 236° Southwest 482 555 40,000  Level FlightAware Transoceanic
10:51PM 50.1734 162.5524 235° Southwest 482 555 40,000  Level FlightAware Transoceanic
10:51PM 50.1500 162.4833 235° Southwest 486 559 40,000  Level Anchorage Center
10:52PM 50.0969 162.3796 235° Southwest 482 555 40,000  Level FlightAware Transoceanic
10:53PM 50.0202 162.2072 235° Southwest 482 555 40,000  Level FlightAware Transoceanic
10:54PM 49.9432 162.0355 235° Southwest 482 555 40,000  Level FlightAware Transoceanic
10:55PM 49.8660 161.8643 235° Southwest 482 555 40,000  Level FlightAware Transoceanic
10:56PM 49.7885 161.6936 235° Southwest 482 555 40,000  Level FlightAware Transoceanic
10:57PM 49.6963 161.4827 234° Southwest 486 559 40,000  Level FlightAware Transoceanic
10:58PM 49.6199 161.3177 234° Southwest 486 559 40,000  Level FlightAware Transoceanic
10:59PM 49.5432 161.1533 234° Southwest 486 559 40,000  Level FlightAware Transoceanic
10:59PM 49.4833 161.0333 234° Southwest 499 574 40,000  Level Anchorage Center
11:00PM 49.4663 160.9894 234° Southwest 486 559 40,000  Level FlightAware Transoceanic
11:01PM 49.3891 160.8260 234° Southwest 486 559 40,000  Level FlightAware Transoceanic
11:01PM 49.3833 160.8333 235° Southwest 499 574 40,000  Level Anchorage Center
11:02PM 49.3118 160.6631 234° Southwest 486 559 40,000  Level FlightAware Transoceanic
11:03PM 49.2342 160.5007 234° Southwest 486 559 40,000  Level FlightAware Transoceanic
11:04PM 49.1563 160.3389 234° Southwest 486 559 40,000  Level FlightAware Transoceanic
11:05PM 49.0783 160.1775 233° Southwest 486 559 40,000  Level FlightAware Transoceanic
11:06PM 49.0000 160.0167 233° Southwest 499 574 40,000  Level FlightAware Transoceanic
11:07PM 48.9177 159.8489 233° Southwest 499 574 40,000  Level FlightAware Transoceanic
11:08PM 48.8352 159.6816 233° Southwest 499 574 40,000  Level FlightAware Transoceanic
11:09PM 48.7524 159.5149 233° Southwest 499 574 40,000  Level FlightAware Transoceanic
11:10PM 48.6694 159.3487 233° Southwest 499 574 40,000  Level FlightAware Transoceanic
11:11PM 48.5862 159.1831 233° Southwest 499 574 40,000  Level FlightAware Transoceanic
11:12PM 48.5027 159.0181 233° Southwest 499 574 40,000  Level FlightAware Transoceanic
11:13PM 48.4189 158.8535 232° Southwest 499 574 40,000  Level FlightAware Transoceanic
11:14PM 48.3350 158.6896 232° Southwest 499 574 40,000  Level FlightAware Transoceanic
11:15PM 48.2508 158.5261 232° Southwest 499 574 40,000  Level FlightAware Transoceanic
11:16PM 48.1664 158.3632 232° Southwest 499 574 40,000  Level FlightAware Transoceanic
11:17PM 48.0817 158.2009 232° Southwest 499 574 40,000  Level FlightAware Transoceanic
11:18PM 47.9968 158.0390 232° Southwest 499 574 40,000  Level FlightAware Transoceanic
11:19PM 47.9118 157.8777 232° Southwest 499 574 40,000  Level FlightAware Transoceanic
11:20PM 47.8264 157.7170 232° Southwest 499 574 40,000  Level FlightAware Transoceanic
11:21PM 47.7409 157.5567 231° Southwest 499 574 40,000  Level FlightAware Transoceanic
11:22PM 47.6551 157.3970 231° Southwest 499 574 40,000  Level FlightAware Transoceanic
11:23PM 47.5691 157.2378 231° Southwest 499 574 40,000  Level FlightAware Transoceanic
11:24PM 47.4829 157.0791 231° Southwest 499 574 40,000  Level FlightAware Transoceanic
11:25PM 47.3965 156.9210 231° Southwest 499 574 40,000  Level FlightAware Transoceanic
11:26PM 47.3098 156.7634 231° Southwest 499 574 40,000  Level FlightAware Transoceanic
11:27PM 47.2229 156.6063 231° Southwest 499 574 40,000  Level FlightAware Transoceanic
11:28PM 47.1359 156.4497 231° Southwest 499 574 40,000  Level FlightAware Transoceanic
11:29PM 47.0486 156.2936 231° Southwest 499 574 40,000  Level FlightAware Transoceanic
11:30PM 46.9611 156.1380 230° Southwest 499 574 40,000  Level FlightAware Transoceanic
11:31PM 46.8733 155.9830 230° Southwest 499 574 40,000  Level FlightAware Transoceanic
11:32PM 46.7854 155.8284 230° Southwest 499 574 40,000  Level FlightAware Transoceanic
11:33PM 46.6973 155.6743 230° Southwest 499 574 40,000  Level FlightAware Transoceanic
11:34PM 46.6090 155.5208 230° Southwest 499 574 40,000  Level FlightAware Transoceanic
11:35PM 46.5204 155.3678 230° Southwest 499 574 40,000  Level FlightAware Transoceanic
11:36PM 46.4317 155.2152 230° Southwest 499 574 40,000  Level FlightAware Transoceanic
11:37PM 46.3427 155.0631 230° Southwest 499 574 40,000  Level FlightAware Transoceanic
11:38PM 46.2536 154.9116 230° Southwest 499 574 40,000  Level FlightAware Transoceanic
11:39PM 46.1642 154.7605 229° Southwest 499 574 40,000  Level FlightAware Transoceanic
11:40PM 46.0747 154.6099 229° Southwest 499 574 40,000  Level FlightAware Transoceanic
11:41PM 45.9850 154.4599 229° Southwest 499 574 40,000  Level FlightAware Transoceanic
11:42PM 45.8950 154.3103 229° Southwest 499 574 40,000  Level FlightAware Transoceanic
11:43PM 45.8049 154.1611 229° Southwest 499 574 40,000  Level FlightAware Transoceanic
11:44PM 45.7146 154.0125 229° Southwest 499 574 40,000  Level FlightAware Transoceanic
11:45PM 45.6240 153.8643 229° Southwest 499 574 40,000  Level FlightAware Transoceanic
11:46PM 45.5283 153.7326 224° Southwest  Level FlightAware Approximate
11:47PM 45.4323 153.6012 224° Southwest  Level FlightAware Approximate
11:48PM 45.4424 153.5954 229° Southwest  Level FlightAware Approximate
11:49PM 45.3548 153.4529 229° Southwest  Level FlightAware Approximate
11:50PM 45.2670 153.3109 229° Southwest  Level FlightAware Approximate
11:51PM 45.1791 153.1693 229° Southwest  Level FlightAware Approximate
11:52PM 45.0909 153.0282 229° Southwest  Level FlightAware Approximate
11:53PM 45.0026 152.8875 228° Southwest  Level FlightAware Approximate
11:54PM 44.9131 152.7485 228° Southwest  Level FlightAware Approximate
11:55PM 44.8233 152.6100 228° Southwest  Level FlightAware Approximate
11:56PM 44.7334 152.4720 228° Southwest  Level FlightAware Approximate
11:57PM 44.6434 152.3344 227° Southwest  Level FlightAware Approximate
11:58PM 44.5531 152.1972 227° Southwest  Level FlightAware Approximate
11:59PM 44.4627 152.0605 227° Southwest  Level FlightAware Approximate
12:00AM 44.3722 151.9241 227° Southwest  Level FlightAware Approximate
12:01AM 44.2815 151.7882 227° Southwest  Level FlightAware Approximate
12:02AM 44.1906 151.6527 227° Southwest  Level FlightAware Approximate
12:03AM 44.0995 151.5176 227° Southwest  Level FlightAware Approximate
12:04AM 44.0083 151.3830 227° Southwest  Level FlightAware Approximate
12:05AM 43.9170 151.2487 227° Southwest  Level FlightAware Approximate
12:06AM 43.8255 151.1149 227° Southwest  Level FlightAware Approximate
12:07AM 43.7338 150.9814 226° Southwest  Level FlightAware Approximate
12:08AM 43.6420 150.8484 226° Southwest  Level FlightAware Approximate
12:09AM 43.5500 150.7158 226° Southwest  Level FlightAware Approximate
12:10AM 43.4579 150.5836 226° Southwest  Level FlightAware Approximate
12:11AM 43.3656 150.4518 226° Southwest  Level FlightAware Approximate
12:12AM 43.2732 150.3204 226° Southwest  Level FlightAware Approximate
12:13AM 43.1806 150.1894 226° Southwest  Level FlightAware Approximate
12:13AM 42.9210 149.8190 226° Southwest 484 557 40,000  Level FlightAware
12:14AM 43.0879 150.0588 226° Southwest  Level FlightAware Approximate
12:14AM 42.8590 149.7330 225° Southwest 483 556 40,000  Level FlightAware
12:15AM 42.8150 149.6720 225° Southwest 483 556 40,000  Level FlightAware
12:15AM 42.7340 149.5600 225° Southwest 481 554 40,000  Level FlightAware
12:16AM 42.6710 149.4730 225° Southwest 480 552 40,000  Level FlightAware
12:16AM 42.6260 149.4110 225° Southwest 480 552 40,000  Level FlightAware
12:17AM 42.5540 149.3130 225° Southwest 481 554 40,000  Level FlightAware
12:18AM 42.5090 149.2510 225° Southwest 481 554 40,000  Level FlightAware
12:18AM 42.4610 149.1860 225° Southwest 481 554 40,000  Level FlightAware
12:19AM 42.4130 149.1210 225° Southwest 481 554 40,000  Level FlightAware
12:20AM 42.3640 149.0550 225° Southwest 481 554 40,000  Level FlightAware
12:20AM 42.2610 148.9130 226° Southwest 478 550 40,000  Level FlightAware
12:21AM 42.1940 148.8230 225° Southwest 475 547 40,000  Level FlightAware
12:22AM 42.1400 148.7500 225° Southwest 476 548 40,000  Level FlightAware
12:22AM 42.0970 148.6930 225° Southwest 477 549 40,000  Level FlightAware
12:23AM 42.0230 148.5940 225° Southwest 475 547 40,000  Level FlightAware
12:24AM 41.9590 148.5090 225° Southwest 473 544 40,000  Level FlightAware
12:24AM 41.9070 148.4390 225° Southwest 472 543 40,000  Level FlightAware
12:25AM 41.8280 148.3350 224° Southwest 471 542 40,000  Level FlightAware
12:26AM 41.7630 148.2480 225° Southwest 473 544 40,000  Level FlightAware
12:27AM 41.6800 148.1400 224° Southwest 473 544 40,000  Level FlightAware
12:27AM 41.6110 148.0510 224° Southwest 475 547 40,000  Level FlightAware
12:28AM 41.5500 147.9730 224° Southwest 475 547 40,000  Level FlightAware
12:29AM 41.5010 147.9100 224° Southwest 475 547 40,000  Level FlightAware
12:29AM 41.4480 147.8430 223° Southwest 475 547 40,000  Level FlightAware
12:30AM 41.3870 147.7660 223° Southwest 473 544 40,000  Level FlightAware
12:30AM 41.3330 147.6950 225° Southwest 471 542 40,000  Level FlightAware
12:31AM 41.2710 147.6170 223° Southwest 472 543 40,000  Level FlightAware
12:32AM 41.2090 147.5380 224° Southwest 471 542 40,000  Level FlightAware
12:32AM 41.1570 147.4730 223° Southwest 470 541 40,000  Level FlightAware
12:33AM 41.0920 147.3920 223° Southwest 471 542 40,000  Level FlightAware
12:34AM 41.0260 147.3080 224° Southwest 469 540 40,000  Level FlightAware
12:34AM 40.9770 147.2480 223° Southwest 469 540 40,000  Level FlightAware
12:35AM 40.9120 147.1660 224° Southwest 469 540 40,000  Level FlightAware
12:35AM 40.8550 147.0950 223° Southwest 469 540 40,000  Level FlightAware
12:36AM 40.8080 147.0360 224° Southwest 466 536 40,000  Level FlightAware
12:36AM 40.7490 146.9630 223° Southwest 466 536 40,000  Level FlightAware
12:37AM 40.6840 146.8820 223° Southwest 466 536 40,000  Level FlightAware
12:38AM 40.6230 146.8070 223° Southwest 466 536 40,000  Level FlightAware
12:38AM 40.5720 146.7440 223° Southwest 466 536 40,000  Level FlightAware
12:39AM 40.5100 146.6680 223° Southwest 466 536 40,000  Level FlightAware
12:40AM 40.4480 146.5920 223° Southwest 464 534 40,000  Level FlightAware
12:40AM 40.3930 146.5250 223° Southwest 464 534 40,000  Level FlightAware
12:41AM 40.3370 146.4560 223° Southwest 464 534 40,000  Level FlightAware
12:41AM 40.2700 146.3740 223° Southwest 462 532 40,000  Level FlightAware
12:42AM 40.2160 146.3090 223° Southwest 464 534 40,000  Level FlightAware
12:43AM 40.1590 146.2400 223° Southwest 464 534 40,000  Level FlightAware
12:43AM 40.1060 146.1750 223° Southwest 464 534 40,000  Level FlightAware
12:44AM 40.0390 146.0960 222° Southwest 464 534 40,000  Level FlightAware
12:45AM 39.9630 146.0050 223° Southwest 463 533 40,000  Level FlightAware
12:45AM 39.8980 145.9260 223° Southwest 464 534 40,000  Level FlightAware
12:46AM 39.8530 145.8730 222° Southwest 465 535 40,000  Level FlightAware
12:47AM 39.8050 145.8140 223° Southwest 465 535 40,000  Level FlightAware
12:47AM 39.7410 145.7380 222° Southwest 466 536 40,000  Level FlightAware
12:48AM 39.6700 145.6560 222° Southwest 359 413 40,000  Level FlightAware
12:48AM 39.6100 145.5840 223° Southwest 476 548 40,000  Level FlightAware
12:49AM 39.5490 145.5130 222° Southwest 466 536 40,000  Level FlightAware
12:50AM 39.4970 145.4500 223° Southwest 466 536 40,000  Level FlightAware
12:50AM 39.4220 145.3630 222° Southwest 478 550 40,000  Level FlightAware
12:51AM 39.3640 145.2960 222° Southwest 479 551 40,000  Level FlightAware
12:51AM 39.3150 145.2380 222° Southwest 479 551 40,000  Level FlightAware
12:52AM 39.2630 145.1770 222° Southwest 479 551 40,000  Level FlightAware
12:53AM 39.1930 145.0960 222° Southwest 479 551 40,000  Level FlightAware
12:53AM 39.1360 145.0300 222° Southwest 480 552 40,000  Level FlightAware
12:54AM 39.0870 144.9730 222° Southwest 480 552 40,000  Level FlightAware
12:54AM 39.0350 144.9120 222° Southwest 480 552 40,000  Level FlightAware
12:55AM 38.9560 144.8220 222° Southwest 479 551 40,000  Level FlightAware
12:56AM 38.8980 144.7550 222° Southwest 479 551 40,000  Level FlightAware
12:56AM 38.8310 144.6780 222° Southwest 479 551 40,000  Level FlightAware
12:57AM 38.7610 144.5980 222° Southwest 480 552 40,000  Level FlightAware
12:57AM 38.7170 144.5490 221° Southwest 480 552 40,000  Level FlightAware
12:58AM 38.6290 144.4480 222° Southwest 481 554 40,000  Level FlightAware
12:59AM 38.5660 144.3760 222° Southwest 480 552 40,000  Level FlightAware
01:00AM 38.4970 144.2990 221° Southwest 481 554 40,000  Level FlightAware
01:00AM 38.4480 144.2440 221° Southwest 474 545 40,000  Level FlightAware
01:01AM 38.3890 144.1770 222° Southwest 474 545 40,000  Level FlightAware
01:01AM 38.3230 144.1030 221° Southwest 474 545 40,000  Level FlightAware
01:02AM 38.2650 144.0380 221° Southwest 475 547 40,000  Level FlightAware
01:02AM 38.2130 143.9830 220° Southwest 483 556 40,000  Level FlightAware
01:03AM 38.1480 143.9270 214° Southwest 488 562 40,000  Level FlightAware
01:04AM 38.0700 143.8670 211° Southwest 489 563 40,000  Level FlightAware
01:04AM 38.0160 143.8260 211° Southwest 489 563 40,000  Level FlightAware
01:05AM 37.9450 143.7710 211° Southwest 491 565 40,000  Level FlightAware
01:05AM 37.8680 143.7120 211° Southwest 491 565 40,000  Level FlightAware
01:06AM 37.8080 143.6670 211° Southwest 490 564 40,000  Level FlightAware
01:07AM 37.7370 143.6120 211° Southwest 480 552 40,000  Level FlightAware
01:07AM 37.6740 143.5610 213° Southwest 480 552 40,000  Level FlightAware
01:08AM 37.6090 143.5090 212° Southwest 482 555 40,000  Level FlightAware
01:08AM 37.5420 143.4540 213° Southwest 480 552 40,000  Level FlightAware
01:09AM 37.4750 143.4010 212° Southwest 481 554 40,000  Level FlightAware
01:10AM 37.3990 143.3410 212° Southwest 481 554 40,000  Level FlightAware
01:10AM 37.3310 143.2880 212° Southwest 482 555 40,000  Level FlightAware
01:11AM 37.2640 143.2340 213° Southwest 482 555 40,000  Level FlightAware
01:11AM 37.2070 143.1890 212° Southwest 490 564 40,000  Level FlightAware
01:12AM 37.1310 143.1300 212° Southwest 490 564 40,000  Level FlightAware
01:12AM 37.0750 143.0860 212° Southwest 490 564 40,000  Level FlightAware
01:13AM 37.0050 143.0310 212° Southwest 491 565 40,000  Level FlightAware
01:14AM 36.9280 142.9700 212° Southwest 489 563 40,000  Level FlightAware
01:14AM 36.8610 142.9190 211° Southwest 489 563 40,000  Level FlightAware
01:15AM 36.7750 142.8520 212° Southwest 489 563 40,000  Level FlightAware
01:16AM 36.6980 142.7910 212° Southwest 491 565 40,000  Level FlightAware
01:16AM 36.6400 142.7460 212° Southwest 491 565 40,000  Level FlightAware
01:17AM 36.5640 142.6870 212° Southwest 490 564 40,000 -420 Level FlightAware
01:17AM 36.4920 142.6210 216° Southwest 474 545 39,500 -1,500 Descending FlightAware
01:18AM 36.4290 142.5620 217° Southwest 473 544 38,200 -2,340 Descending FlightAware
01:19AM 36.3660 142.5030 217° Southwest 484 557 36,800 -2,580 Descending FlightAware
01:19AM 36.2930 142.4340 217° Southwest 507 583 35,000 -3,300 Descending FlightAware
01:20AM 36.2280 142.3730 217° Southwest 506 582 32,700 -3,960 Descending FlightAware
01:20AM 36.1650 142.3130 218° Southwest 484 557 30,400 -3,900 Descending FlightAware
01:21AM 36.1040 142.2570 217° Southwest 463 533 28,200 -3,720 Descending FlightAware
01:22AM 36.0380 142.1960 217° Southwest 449 517 26,000 -3,240 Descending FlightAware
01:22AM 36.0160 142.1710 223° Southwest 432 497 25,400 -1,920 Descending FlightAware
01:22AM 35.9890 142.1070 242° Southwest 427 491 24,600 -1,680 Descending FlightAware
01:23AM 35.9780 142.0150 262° West 418 481 23,500 -1,800 Descending FlightAware
01:24AM 35.9700 141.9390 263° West 417 480 22,500 -2,040 Descending FlightAware
01:24AM 35.9610 141.8560 262° West 409 471 21,300 -1,980 Descending FlightAware
01:25AM 35.9520 141.7760 262° West 401 461 20,200 -1,920 Descending FlightAware
01:25AM 35.9440 141.6970 263° West 394 453 19,000 -2,040 Descending FlightAware
01:26AM 35.9350 141.6160 262° West 386 444 17,800 -2,040 Descending FlightAware
01:27AM 35.9260 141.5390 262° West 383 441 16,700 -1,980 Descending FlightAware
01:27AM 35.9180 141.4650 262° West 378 435 15,500 -1,980 Descending FlightAware
01:28AM 35.9100 141.3900 263° West 373 429 14,400 -1,920 Descending FlightAware
01:28AM 35.9020 141.3170 262° West 369 425 13,300 -1,800 Descending FlightAware
01:29AM 35.8950 141.2440 263° West 362 417 12,300 -1,740 Descending FlightAware
01:29AM 35.8890 141.1730 264° West 361 415 11,300 -1,500 Descending FlightAware
01:30AM 35.8820 141.1000 263° West 360 414 10,600 -900 Descending FlightAware
01:31AM 35.8760 141.0290 264° West 340 391 10,300 -300 Descending FlightAware
01:31AM 35.8710 140.9660 264° West 305 351 10,300 -360 Level FlightAware
01:32AM 35.8690 140.9340 266° West 284 327 10,000 -2,160 Descending FlightAware
01:32AM 35.8660 140.8960 264° West 288 331 8,700 -2,940 Descending FlightAware
01:32AM 35.8630 140.8600 264° West 284 327 7,800 -2,220 Descending FlightAware
01:33AM 35.8600 140.8260 264° West 287 330 7,200 -1,080 Descending FlightAware
01:33AM 35.8570 140.7950 263° West 284 327 7,100 -180 Descending FlightAware
01:33AM 35.8550 140.7640 265° West 284 327 7,100  Level FlightAware
01:34AM 35.8530 140.7390 264° West 274 315 7,100  Level FlightAware
01:34AM 35.8500 140.7080 263° West 258 297 7,100  Level FlightAware
01:34AM 35.8490 140.6870 267° West 250 288 7,100  Level FlightAware
01:34AM 35.8510 140.6740 281° West 248 285 7,100  Level FlightAware
01:34AM 35.8530 140.6690 296° West 248 285 7,100  Level FlightAware
01:35AM 35.8630 140.6520 306° West 249 287 7,100  Level FlightAware
01:35AM 35.8800 140.6290 312° West 244 281 7,100  Level FlightAware
01:35AM 35.8960 140.6090 315° West 244 281 7,100  Level FlightAware
01:36AM 35.9120 140.5890 315° West 244 281 7,100  Level FlightAware
01:36AM 35.9230 140.5750 314° West 244 281 7,100  Level FlightAware
01:36AM 35.9440 140.5480 314° West 248 285 7,100  Level FlightAware
01:37AM 35.9610 140.5260 314° West 247 284 7,100  Level FlightAware
01:37AM 35.9660 140.5180 308° West 247 284 7,100  Level FlightAware
01:37AM 35.9760 140.4930 296° West 242 278 7,100  Level FlightAware
01:37AM 35.9840 140.4720 295° West 240 276 7,100 -480 Level FlightAware
01:38AM 35.9960 140.4410 296° West 239 275 6,800 -900 Descending FlightAware
01:38AM 36.0050 140.4140 292° West 237 273 6,400 -1,020 Descending FlightAware
01:38AM 36.0060 140.4030 276° West 235 270 6,300 -660 Descending FlightAware
01:39AM 36.0050 140.3760 267° West 232 267 6,100 -300 Descending FlightAware
01:39AM 36.0030 140.3500 265° West 232 267 6,100  Level FlightAware
01:39AM 36.0010 140.3390 257° West 230 265 6,100 -300 Level FlightAware
01:39AM 35.9970 140.3240 252° West 226 260 6,000 -1,200 Descending FlightAware
01:40AM 35.9870 140.2970 245° Southwest 225 259 5,400 -1,680 Descending FlightAware
01:40AM 35.9780 140.2740 244° Southwest 209 241 4,800 -1,740 Descending FlightAware
01:40AM 35.9740 140.2670 235° Southwest 204 235 4,600 -1,500 Descending FlightAware
01:40AM 35.9720 140.2630 238° Southwest 202 232 4,500 -1,500 Descending FlightAware
01:40AM 35.9660 140.2580 214° Southwest 198 228 4,300 -1,320 Descending FlightAware
01:40AM 35.9610 140.2560 198° South 196 226 4,200 -1,500 Descending FlightAware
01:41AM 35.9550 140.2540 195° South 194 223 4,000 -2,100 Descending FlightAware
01:41AM 35.9410 140.2530 183° South 194 223 3,400 -1,680 Descending FlightAware
01:41AM 35.9250 140.2590 163° South 198 228 3,000 -900 Descending FlightAware
01:41AM 35.9170 140.2650 149° Southeast 195 224 2,900 -240 Descending FlightAware
01:42AM 35.9060 140.2730 149° Southeast 192 221 2,900 -240 Level FlightAware
01:42AM 35.8900 140.2850 149° Southeast 189 217 2,800 -780 Descending FlightAware
01:42AM 35.8750 140.2950 152° Southeast 184 212 2,400 -1,080 Descending FlightAware
01:43AM 35.8540 140.3100 150° Southeast 163 188 2,000 -960 Descending FlightAware
01:43AM 35.8430 140.3180 149° Southeast 146 168 1,700 -840 Descending FlightAware
01:43AM 35.8290 140.3290 148° Southeast 137 158 1,400 -660 Descending FlightAware
01:44AM 35.8180 140.3370 149° Southeast 137 158 1,200 -660 Descending FlightAware
01:44AM 35.8080 140.3440 150° Southeast 136 157 1,000 -600 Descending FlightAware
01:44AM 35.7960 140.3520 152° Southeast 134 154 800 -660 Descending FlightAware
01:45AM 35.7880 140.3590 145° Southeast 134 154 600 -780 Descending FlightAware
01:45AM 35.7790 140.3650 152° Southeast 133 153 400 -300 Descending FlightAware
01:45AM 35.7660 140.3750 148° Southeast 133 153 400  Level FlightAware